createdAt,value
2022-12-04T00:01:27.762Z,0.51
2022-12-04T00:03:56.720Z,0.55
2022-12-04T00:06:23.952Z,0.59
2022-12-04T00:08:51.793Z,0.53
2022-12-04T00:11:22.081Z,0.52
2022-12-04T00:13:48.671Z,0.55
2022-12-04T00:16:18.894Z,0.53
2022-12-04T00:18:45.529Z,0.56
2022-12-04T00:21:13.929Z,0.59
2022-12-04T00:23:40.782Z,0.61
2022-12-04T00:26:10.587Z,0.63
2022-12-04T00:28:37.840Z,0.64
2022-12-04T00:31:12.953Z,0.61
2022-12-04T00:33:39.841Z,0.60
2022-12-04T00:36:09.782Z,0.65
2022-12-04T00:38:37.380Z,0.59
2022-12-04T00:41:05.115Z,0.59
2022-12-04T00:43:31.864Z,0.59
2022-12-04T00:45:58.559Z,0.61
2022-12-04T00:48:25.157Z,0.65
2022-12-04T00:50:51.756Z,0.63
2022-12-04T00:53:18.395Z,0.66
2022-12-04T00:55:44.911Z,0.56
2022-12-04T00:58:12.318Z,0.57
2022-12-04T01:00:41.618Z,0.60
2022-12-04T01:03:09.407Z,0.59
2022-12-04T01:05:40.875Z,0.57
2022-12-04T01:08:08.164Z,0.59
2022-12-04T01:10:35.214Z,0.55
2022-12-04T01:13:01.727Z,0.58
2022-12-04T01:15:28.206Z,0.57
2022-12-04T01:17:54.863Z,0.50
2022-12-04T01:20:21.374Z,0.51
2022-12-04T01:22:47.879Z,0.54
2022-12-04T01:25:14.338Z,0.51
2022-12-04T01:27:40.833Z,0.55
2022-12-04T01:30:08.048Z,0.51
2022-12-04T01:32:34.508Z,0.53
2022-12-04T01:35:00.984Z,0.55
2022-12-04T01:37:30.665Z,0.56
2022-12-04T01:39:57.661Z,0.55
2022-12-04T01:42:24.909Z,0.58
2022-12-04T01:45:29.259Z,0.59
2022-12-04T01:48:00.307Z,0.58
2022-12-04T01:50:26.889Z,0.55
2022-12-04T01:52:53.532Z,0.53
2022-12-04T01:55:20.052Z,0.57
2022-12-04T01:57:46.666Z,0.55
2022-12-04T02:00:15.959Z,0.50
2022-12-04T02:02:47.394Z,0.51
2022-12-04T02:05:19.347Z,0.54
2022-12-04T02:07:48.638Z,0.53
2022-12-04T02:10:17.176Z,0.56
2022-12-04T02:12:51.175Z,0.49
2022-12-04T02:15:26.823Z,0.54
2022-12-04T02:18:22.466Z,0.49
2022-12-04T02:20:57.856Z,0.54
2022-12-04T02:23:52.357Z,0.63
2022-12-04T02:26:40.729Z,0.58
2022-12-04T02:29:34.283Z,0.56
2022-12-04T02:32:19.946Z,0.60
2022-12-04T02:35:08.885Z,0.60
2022-12-04T02:37:49.592Z,0.54
2022-12-04T02:40:22.879Z,0.58
2022-12-04T02:43:03.496Z,0.55
2022-12-04T02:45:35.250Z,0.59
2022-12-04T02:48:06.250Z,0.64
2022-12-04T02:50:36.104Z,0.63
2022-12-04T02:53:10.201Z,0.60
2022-12-04T02:56:17.147Z,0.64
2022-12-04T02:58:52.796Z,0.61
2022-12-04T03:01:24.039Z,0.61
2022-12-04T03:04:14.084Z,0.62
2022-12-04T03:06:44.442Z,0.61
2022-12-04T03:09:32.754Z,0.70
2022-12-04T03:12:20.523Z,0.62
2022-12-04T03:15:08.003Z,0.61
2022-12-04T03:17:46.135Z,0.64
2022-12-04T03:20:15.307Z,0.61
2022-12-04T03:22:46.020Z,0.54
2022-12-04T03:25:13.918Z,0.52
2022-12-04T03:27:54.651Z,0.56
2022-12-04T03:30:23.927Z,0.63
2022-12-04T03:33:07.131Z,0.64
2022-12-04T03:35:39.308Z,0.59
2022-12-04T03:38:37.760Z,0.54
2022-12-04T03:41:30.541Z,0.62
2022-12-04T03:44:08.836Z,0.68
2022-12-04T03:47:01.864Z,0.68
2022-12-04T03:49:42.059Z,0.63
2022-12-04T03:52:18.844Z,0.60
2022-12-04T03:55:18.300Z,0.62
2022-12-04T03:57:46.752Z,0.59
2022-12-04T04:00:15.641Z,0.62
2022-12-04T04:02:48.765Z,0.60
2022-12-04T04:05:16.571Z,0.57
2022-12-04T04:07:51.545Z,0.60
2022-12-04T04:10:21.851Z,0.64
2022-12-04T04:13:19.260Z,0.61
2022-12-04T04:16:10.943Z,0.60
2022-12-04T04:19:00.494Z,0.60
2022-12-04T04:21:50.884Z,0.59
2022-12-04T04:24:43.369Z,0.64
2022-12-04T04:27:10.009Z,0.63
2022-12-04T04:29:38.043Z,0.56
2022-12-04T04:32:16.762Z,0.58
2022-12-04T04:35:04.997Z,0.62
2022-12-04T04:37:42.915Z,0.55
2022-12-04T04:40:15.449Z,0.60
2022-12-04T04:42:48.002Z,0.66
2022-12-04T04:45:47.974Z,0.65
2022-12-04T04:48:19.427Z,0.58
2022-12-04T04:50:46.369Z,0.59
2022-12-04T04:53:18.784Z,0.61
2022-12-04T04:55:45.855Z,0.56
2022-12-04T04:58:16.148Z,0.65
2022-12-04T05:01:05.545Z,0.60
2022-12-04T05:03:32.639Z,0.60
2022-12-04T05:05:59.330Z,0.56
2022-12-04T05:08:25.865Z,0.58
2022-12-04T05:10:52.538Z,0.61
2022-12-04T05:13:19.848Z,0.59
2022-12-04T05:16:03.550Z,0.60
2022-12-04T05:18:31.387Z,0.57
2022-12-04T05:21:05.444Z,0.55
2022-12-04T05:23:31.892Z,0.61
2022-12-04T05:26:02.767Z,0.54
2022-12-04T05:28:29.510Z,0.57
2022-12-04T05:30:57.717Z,0.53
2022-12-04T05:33:24.477Z,0.47
2022-12-04T05:36:02.316Z,0.49
2022-12-04T05:38:28.897Z,0.53
2022-12-04T05:40:58.158Z,0.56
2022-12-04T05:43:24.721Z,0.55
2022-12-04T05:45:51.180Z,0.61
2022-12-04T05:48:17.841Z,0.59
2022-12-04T05:50:44.489Z,0.58
2022-12-04T05:53:10.971Z,0.63
2022-12-04T05:55:37.560Z,0.56
2022-12-04T05:58:04.640Z,0.55
2022-12-04T06:00:31.343Z,0.54
2022-12-04T06:02:58.263Z,0.51
2022-12-04T06:05:24.721Z,0.57
2022-12-04T06:07:51.386Z,0.62
2022-12-04T06:10:17.889Z,0.61
2022-12-04T06:12:44.360Z,0.62
2022-12-04T06:15:11.161Z,0.58
2022-12-04T06:17:37.629Z,0.62
2022-12-04T06:20:10.916Z,0.57
2022-12-04T06:22:38.102Z,0.55
2022-12-04T06:25:04.929Z,0.55
2022-12-04T06:27:31.651Z,0.49
2022-12-04T06:29:58.541Z,0.51
2022-12-04T06:32:25.499Z,0.53
2022-12-04T06:34:53.612Z,0.55
2022-12-04T06:37:21.775Z,0.54
2022-12-04T06:39:48.815Z,0.62
2022-12-04T06:42:15.372Z,0.58
2022-12-04T06:44:41.849Z,0.55
2022-12-04T06:47:08.667Z,0.54
2022-12-04T06:49:36.189Z,0.58
2022-12-04T06:52:02.710Z,0.57
2022-12-04T06:54:29.229Z,0.54
2022-12-04T06:56:55.659Z,0.54
2022-12-04T06:59:22.115Z,0.50
2022-12-04T07:01:48.742Z,0.60
2022-12-04T07:04:15.320Z,0.55
2022-12-04T07:06:42.016Z,0.53
2022-12-04T07:09:15.422Z,0.58
2022-12-04T07:11:43.193Z,0.54
2022-12-04T07:14:11.685Z,0.54
2022-12-04T07:16:41.340Z,0.47
2022-12-04T07:19:13.691Z,0.53
2022-12-04T07:21:41.120Z,0.53
2022-12-04T07:24:07.842Z,0.49
2022-12-04T07:26:34.318Z,0.57
2022-12-04T07:29:00.935Z,0.54
2022-12-04T07:31:29.483Z,0.57
2022-12-04T07:33:56.750Z,0.57
2022-12-04T07:36:24.521Z,0.51
2022-12-04T07:38:51.391Z,0.52
2022-12-04T07:41:19.315Z,0.54
2022-12-04T07:43:46.188Z,0.52
2022-12-04T07:46:16.270Z,0.54
2022-12-04T07:48:43.326Z,0.56
2022-12-04T07:51:15.689Z,0.54
2022-12-04T07:53:42.480Z,0.49
2022-12-04T07:56:10.495Z,0.47
2022-12-04T07:58:37.136Z,0.53
2022-12-04T08:01:12.368Z,0.56
2022-12-04T08:03:46.874Z,0.53
2022-12-04T08:06:15.648Z,0.54
2022-12-04T08:08:42.216Z,0.55
2022-12-04T08:11:11.675Z,0.57
2022-12-04T08:13:38.178Z,0.57
2022-12-04T08:16:06.645Z,0.53
2022-12-04T08:18:33.330Z,0.55
2022-12-04T08:21:05.717Z,0.55
2022-12-04T08:23:32.286Z,0.52
2022-12-04T08:26:00.558Z,0.54
2022-12-04T08:28:27.182Z,0.58
2022-12-04T08:30:53.768Z,0.49
2022-12-04T08:33:20.300Z,0.50
2022-12-04T08:35:46.927Z,0.53
2022-12-04T08:38:13.435Z,0.55
2022-12-04T08:40:40.046Z,0.56
2022-12-04T08:43:06.479Z,0.59
2022-12-04T08:45:33.093Z,0.54
2022-12-04T08:47:59.578Z,0.61
2022-12-04T08:50:26.069Z,0.57
2022-12-04T08:52:52.635Z,0.58
2022-12-04T08:55:19.715Z,0.58
2022-12-04T08:57:46.313Z,0.62
2022-12-04T09:00:13.501Z,0.60
2022-12-04T09:02:39.952Z,0.64
2022-12-04T09:05:06.701Z,0.60
2022-12-04T09:07:33.405Z,0.60
2022-12-04T09:10:00.151Z,0.64
2022-12-04T09:12:26.979Z,0.67
2022-12-04T09:14:53.619Z,0.69
2022-12-04T09:17:20.072Z,0.71
2022-12-04T09:19:46.740Z,0.72
2022-12-04T09:22:13.235Z,0.69
2022-12-04T09:24:39.824Z,0.67
2022-12-04T09:27:11.287Z,0.70
2022-12-04T09:29:40.886Z,0.64
2022-12-04T09:32:07.637Z,0.69
2022-12-04T09:34:34.184Z,0.66
2022-12-04T09:37:01.130Z,0.71
2022-12-04T09:39:27.674Z,0.73
2022-12-04T09:42:09.391Z,0.74
2022-12-04T09:44:41.355Z,0.68
2022-12-04T09:47:29.664Z,0.71
2022-12-04T09:49:59.024Z,0.72
2022-12-04T09:52:40.218Z,0.68
2022-12-04T09:55:11.764Z,0.76
2022-12-04T09:57:43.968Z,0.74
2022-12-04T10:00:14.212Z,0.69
2022-12-04T10:02:44.837Z,0.71
2022-12-04T10:05:21.693Z,0.74
2022-12-04T10:08:07.665Z,0.70
2022-12-04T10:10:39.424Z,0.76
2022-12-04T10:13:24.606Z,0.76
2022-12-04T10:16:20.771Z,0.77
2022-12-04T10:19:00.891Z,0.75
2022-12-04T10:22:00.604Z,0.76
2022-12-04T10:24:48.484Z,0.85
2022-12-04T10:27:22.758Z,0.83
2022-12-04T10:29:55.662Z,0.84
2022-12-04T10:32:35.018Z,0.86
2022-12-04T10:35:33.075Z,0.85
2022-12-04T10:38:06.892Z,0.84
2022-12-04T10:40:40.224Z,0.81
2022-12-04T10:43:18.900Z,0.79
2022-12-04T10:45:45.532Z,0.83
2022-12-04T10:48:31.628Z,0.83
2022-12-04T10:50:58.188Z,0.85
2022-12-04T10:53:31.025Z,0.91
2022-12-04T10:56:09.514Z,0.91
2022-12-04T10:58:36.005Z,0.91
2022-12-04T11:01:05.986Z,0.94
2022-12-04T11:03:32.654Z,0.90
2022-12-04T11:06:03.866Z,0.95
2022-12-04T11:08:42.637Z,0.94
2022-12-04T11:11:12.899Z,0.97
2022-12-04T11:13:42.189Z,0.99
2022-12-04T11:16:28.885Z,0.87
2022-12-04T11:18:55.578Z,0.91
2022-12-04T11:21:32.130Z,0.92
2022-12-04T11:23:58.912Z,0.92
2022-12-04T11:26:32.851Z,0.95
2022-12-04T11:29:05.411Z,0.99
2022-12-04T11:31:33.168Z,1.03
2022-12-04T11:34:06.879Z,1.06
2022-12-04T11:36:41.654Z,1.07
2022-12-04T11:39:11.142Z,1.06
2022-12-04T11:41:38.058Z,1.08
2022-12-04T11:44:24.611Z,1.03
2022-12-04T11:46:56.625Z,1.09
2022-12-04T11:49:25.135Z,1.09
2022-12-04T11:52:23.153Z,1.02
2022-12-04T11:55:08.789Z,1.06
2022-12-04T11:57:49.893Z,1.09
2022-12-04T12:00:21.781Z,1.11
2022-12-04T12:02:58.153Z,1.10
2022-12-04T12:05:46.247Z,1.12
2022-12-04T12:08:46.783Z,1.11
2022-12-04T12:11:25.802Z,1.10
2022-12-04T12:14:15.474Z,1.10
2022-12-04T12:16:58.413Z,1.06
2022-12-04T12:20:04.260Z,1.08
2022-12-04T12:22:36.505Z,1.13
2022-12-04T12:25:17.371Z,1.12
2022-12-04T12:27:43.857Z,1.17
2022-12-04T12:30:22.446Z,1.16
2022-12-04T12:32:53.868Z,1.15
2022-12-04T12:35:27.089Z,1.17
2022-12-04T12:37:58.210Z,1.22
2022-12-04T12:40:39.866Z,1.20
2022-12-04T12:43:20.833Z,1.27
2022-12-04T12:45:59.747Z,1.28
2022-12-04T12:48:46.589Z,1.30
2022-12-04T12:51:29.963Z,1.30
2022-12-04T12:54:04.845Z,1.26
2022-12-04T12:56:38.497Z,1.31
2022-12-04T12:59:12.246Z,1.34
2022-12-04T13:02:13.927Z,1.38
2022-12-04T13:04:43.646Z,1.41
2022-12-04T13:07:20.700Z,1.38
2022-12-04T13:09:53.057Z,1.38
2022-12-04T13:12:21.211Z,1.37
2022-12-04T13:14:49.292Z,1.42
2022-12-04T13:17:24.012Z,1.40
2022-12-04T13:19:54.472Z,1.43
2022-12-04T13:22:54.179Z,1.44
2022-12-04T13:25:35.900Z,1.55
2022-12-04T13:28:31.499Z,1.53
2022-12-04T13:31:25.841Z,1.51
2022-12-04T13:33:58.084Z,1.54
2022-12-04T13:36:42.950Z,1.42
2022-12-04T13:39:18.629Z,1.52
2022-12-04T13:41:45.197Z,1.46
2022-12-04T13:44:22.268Z,1.55
2022-12-04T13:46:58.831Z,1.52
2022-12-04T13:49:31.763Z,1.51
2022-12-04T13:52:00.364Z,1.52
2022-12-04T13:54:35.760Z,1.56
2022-12-04T13:57:14.552Z,1.55
2022-12-04T13:59:42.329Z,1.55
2022-12-04T14:02:29.031Z,1.58
2022-12-04T14:05:06.563Z,1.59
2022-12-04T14:07:42.958Z,1.56
2022-12-04T14:10:15.750Z,1.57
2022-12-04T14:12:49.845Z,1.58
2022-12-04T14:15:38.188Z,1.61
2022-12-04T14:18:11.434Z,1.59
2022-12-04T14:20:39.370Z,1.62
2022-12-04T14:23:17.863Z,1.65
2022-12-04T14:25:44.443Z,1.64
2022-12-04T14:28:22.863Z,1.58
2022-12-04T14:31:06.015Z,1.58
2022-12-04T14:33:39.509Z,1.67
2022-12-04T14:36:11.072Z,1.65
2022-12-04T14:38:38.413Z,1.66
2022-12-04T14:41:04.955Z,1.73
2022-12-04T14:43:50.433Z,1.69
2022-12-04T14:46:41.717Z,1.65
2022-12-04T14:49:23.583Z,1.69
2022-12-04T14:52:27.101Z,1.68
2022-12-04T14:55:07.504Z,1.69
2022-12-04T14:58:00.337Z,1.73
2022-12-04T15:00:26.815Z,1.71
2022-12-04T15:02:58.232Z,1.75
2022-12-04T15:05:28.412Z,1.76
2022-12-04T15:07:59.938Z,1.73
2022-12-04T15:10:47.683Z,1.76
2022-12-04T15:13:29.237Z,1.89
2022-12-04T15:15:56.099Z,1.87
2022-12-04T15:18:22.703Z,1.87
2022-12-04T15:20:49.127Z,1.88
2022-12-04T15:23:18.828Z,1.88
2022-12-04T15:25:49.044Z,1.84
2022-12-04T15:28:31.348Z,1.81
2022-12-04T15:31:01.053Z,1.82
2022-12-04T15:33:30.867Z,1.85
2022-12-04T15:36:02.841Z,1.94
2022-12-04T15:38:29.578Z,1.86
2022-12-04T15:40:58.861Z,1.92
2022-12-04T15:43:41.145Z,1.91
2022-12-04T15:46:35.806Z,1.94
2022-12-04T15:49:26.858Z,1.98
2022-12-04T15:52:05.716Z,2.01
2022-12-04T15:54:33.066Z,2.04
2022-12-04T15:57:05.636Z,2.02
2022-12-04T15:59:34.715Z,2.02
2022-12-04T16:02:08.800Z,2.02
2022-12-04T16:04:37.951Z,1.96
2022-12-04T16:07:20.545Z,1.98
2022-12-04T16:09:55.797Z,1.90
2022-12-04T16:12:31.583Z,2.06
2022-12-04T16:14:58.344Z,2.06
2022-12-04T16:17:31.430Z,2.05
2022-12-04T16:19:59.286Z,2.07
2022-12-04T16:22:27.098Z,2.05
2022-12-04T16:24:54.588Z,2.09
2022-12-04T16:27:25.754Z,2.13
2022-12-04T16:29:53.198Z,2.12
2022-12-04T16:32:24.589Z,2.03
2022-12-04T16:34:53.407Z,2.03
2022-12-04T16:37:23.337Z,2.06
2022-12-04T16:39:50.651Z,2.06
2022-12-04T16:42:29.665Z,2.04
2022-12-04T16:44:58.182Z,2.07
2022-12-04T16:47:25.248Z,2.14
2022-12-04T16:49:57.738Z,2.02
2022-12-04T16:52:50.092Z,2.06
2022-12-04T16:55:38.579Z,2.00
2022-12-04T16:58:08.870Z,2.03
2022-12-04T17:00:46.245Z,1.97
2022-12-04T17:03:29.047Z,2.10
2022-12-04T17:05:56.944Z,2.12
2022-12-04T17:08:26.731Z,2.02
2022-12-04T17:10:54.207Z,2.09
2022-12-04T17:13:28.438Z,2.14
2022-12-04T17:15:55.492Z,2.11
2022-12-04T17:18:22.452Z,2.11
2022-12-04T17:20:51.879Z,2.09
2022-12-04T17:23:19.031Z,2.10
2022-12-04T17:25:51.826Z,2.16
2022-12-04T17:28:21.332Z,2.23
2022-12-04T17:30:48.273Z,2.20
2022-12-04T17:33:18.446Z,2.20
2022-12-04T17:35:51.164Z,2.27
2022-12-04T17:38:40.699Z,2.33
2022-12-04T17:41:22.601Z,2.21
2022-12-04T17:43:49.960Z,2.20
2022-12-04T17:46:21.856Z,2.13
2022-12-04T17:48:53.231Z,2.29
2022-12-04T17:51:24.361Z,2.14
2022-12-04T17:53:55.806Z,2.13
2022-12-04T17:56:34.229Z,2.13
2022-12-04T17:59:14.535Z,2.10
2022-12-04T18:01:41.709Z,2.19
2022-12-04T18:04:29.166Z,2.15
2022-12-04T18:06:56.565Z,2.32
2022-12-04T18:09:23.151Z,2.45
2022-12-04T18:12:39.403Z,2.42
2022-12-04T18:15:25.181Z,2.26
2022-12-04T18:18:03.457Z,2.35
2022-12-04T18:20:32.785Z,2.30
2022-12-04T18:23:51.364Z,2.38
2022-12-04T18:26:21.318Z,2.18
2022-12-04T18:28:51.856Z,2.17
2022-12-04T18:31:24.228Z,2.27
2022-12-04T18:33:51.006Z,2.22
2022-12-04T18:36:42.450Z,2.26
2022-12-04T18:39:21.118Z,2.27
2022-12-04T18:41:55.856Z,2.40
2022-12-04T18:44:26.877Z,2.31
2022-12-04T18:46:58.804Z,2.18
2022-12-04T18:49:28.739Z,2.25
2022-12-04T18:51:59.205Z,2.16
2022-12-04T18:54:26.184Z,2.37
2022-12-04T18:56:58.360Z,2.27
2022-12-04T18:59:32.442Z,2.20
2022-12-04T19:01:59.340Z,2.16
2022-12-04T19:04:34.758Z,2.23
2022-12-04T19:07:02.516Z,2.29
2022-12-04T19:10:02.575Z,2.25
2022-12-04T19:12:21.930Z,2.25
2022-12-04T19:14:51.897Z,2.23
2022-12-04T19:17:24.309Z,2.27
2022-12-04T19:19:54.065Z,2.21
2022-12-04T19:22:26.666Z,2.36
2022-12-04T19:25:00.608Z,2.33
2022-12-04T19:27:33.908Z,2.32
2022-12-04T19:30:04.015Z,2.42
2022-12-04T19:32:35.093Z,2.33
2022-12-04T19:35:11.440Z,2.34
2022-12-04T19:37:41.715Z,2.38
2022-12-04T19:40:14.027Z,2.38
2022-12-04T19:42:43.227Z,2.44
2022-12-04T19:45:10.792Z,2.39
2022-12-04T19:47:43.435Z,2.53
2022-12-04T19:50:22.443Z,2.41
2022-12-04T19:52:51.595Z,2.58
2022-12-04T19:55:23.337Z,2.47
2022-12-04T19:57:50.316Z,2.56
2022-12-04T20:00:17.457Z,2.56
2022-12-04T20:02:48.102Z,2.57
2022-12-04T20:05:20.316Z,2.58
2022-12-04T20:07:47.343Z,2.61
2022-12-04T20:10:19.854Z,2.53
2022-12-04T20:12:48.908Z,2.63
2022-12-04T20:15:15.826Z,2.59
2022-12-04T20:17:55.160Z,2.52
2022-12-04T20:20:32.156Z,2.73
2022-12-04T20:23:06.444Z,2.70
2022-12-04T20:25:37.681Z,2.62
2022-12-04T20:28:10.195Z,2.68
2022-12-04T20:30:49.285Z,2.67
2022-12-04T20:33:25.741Z,2.70
2022-12-04T20:35:52.852Z,2.87
2022-12-04T20:38:22.843Z,2.69
2022-12-04T20:40:54.858Z,2.82
2022-12-04T20:43:30.840Z,2.72
2022-12-04T20:46:19.903Z,2.82
2022-12-04T20:48:50.773Z,2.77
2022-12-04T20:51:33.828Z,2.80
2022-12-04T20:54:04.622Z,2.77
2022-12-04T20:56:37.914Z,2.85
2022-12-04T20:59:21.350Z,2.83
2022-12-04T21:02:02.337Z,2.87
2022-12-04T21:04:31.844Z,2.84
2022-12-04T21:07:04.173Z,2.95
2022-12-04T21:09:31.071Z,2.90
2022-12-04T21:12:04.652Z,2.91
2022-12-04T21:14:54.290Z,2.84
2022-12-04T21:17:21.421Z,3.03
2022-12-04T21:19:52.670Z,3.05
2022-12-04T21:22:21.802Z,3.08
2022-12-04T21:24:51.227Z,3.02
2022-12-04T21:27:25.546Z,2.91
2022-12-04T21:29:52.294Z,3.02
2022-12-04T21:32:19.751Z,2.97
2022-12-04T21:34:47.812Z,3.03
2022-12-04T21:37:14.629Z,3.16
2022-12-04T21:39:43.302Z,3.12
2022-12-04T21:42:31.674Z,3.00
2022-12-04T21:45:04.258Z,2.99
2022-12-04T21:47:33.790Z,3.08
2022-12-04T21:50:18.460Z,3.17
2022-12-04T21:52:45.270Z,3.16
2022-12-04T21:55:14.404Z,3.09
2022-12-04T21:57:46.156Z,3.13
2022-12-04T22:00:17.033Z,3.25
2022-12-04T22:02:43.896Z,3.15
2022-12-04T22:05:21.251Z,3.28
2022-12-04T22:07:53.234Z,3.25
2022-12-04T22:10:20.018Z,3.28
2022-12-04T22:12:50.490Z,3.25
2022-12-04T22:15:18.003Z,3.18
2022-12-04T22:17:47.152Z,3.33
2022-12-04T22:20:17.414Z,3.28
2022-12-04T22:22:46.928Z,3.23
2022-12-04T22:25:14.744Z,3.26
2022-12-04T22:27:46.639Z,3.32
2022-12-04T22:30:13.954Z,3.19
2022-12-04T22:32:43.843Z,3.37
2022-12-04T22:35:13.455Z,3.33
2022-12-04T22:37:44.759Z,3.39
2022-12-04T22:40:15.598Z,3.25
2022-12-04T22:42:45.049Z,3.35
2022-12-04T22:45:15.536Z,3.32
2022-12-04T22:47:44.730Z,3.28
2022-12-04T22:50:13.639Z,3.41
2022-12-04T22:52:43.455Z,3.36
2022-12-04T22:55:10.419Z,3.34
2022-12-04T22:57:37.481Z,3.37
2022-12-04T23:00:14.003Z,3.36
2022-12-04T23:02:43.740Z,3.33
2022-12-04T23:05:12.114Z,3.36
2022-12-04T23:07:39.508Z,3.37
2022-12-04T23:10:09.845Z,3.38
2022-12-04T23:12:36.581Z,3.40
2022-12-04T23:15:07.840Z,3.51
2022-12-04T23:17:38.024Z,3.54
2022-12-04T23:20:08.798Z,3.44
2022-12-04T23:22:38.562Z,3.45
2022-12-04T23:25:07.012Z,3.48
2022-12-04T23:27:33.831Z,3.51
2022-12-04T23:30:05.324Z,3.54
2022-12-04T23:32:34.394Z,3.56
2022-12-04T23:35:06.013Z,3.63
2022-12-04T23:37:37.623Z,3.45
2022-12-04T23:40:09.559Z,3.56
2022-12-04T23:42:36.499Z,3.67
2022-12-04T23:45:04.398Z,3.50
2022-12-04T23:47:31.212Z,3.57
2022-12-04T23:50:06.004Z,3.61
2022-12-04T23:52:33.027Z,3.60
2022-12-04T23:55:07.412Z,3.62
2022-12-04T23:57:38.267Z,3.61
